Camp, Arkansas
Current Conditions -  °F | °C
As of 5:16 AM on Sunday 23 Nov 2014 (Local Time) from KUNO Reporting Station
Light Rain Light Rain  
Wind Chill: 52°   Ceiling: 900
Heat Index: 52°   Visibility: 7mi
Dew Point: 49°   Wind: 14mph
Humidity: 89%   Direction: 150°SSE
Pressure: 29.72"   Gusts: 24mph
Location:  36.41°N, 91.74°W
Report Text: KUNO 231116Z AUTO 15012G21KT 7SM -RA OVC009 11/09 A2972 RMK AO2 RAB08 CIG 006V011 P0001 T01110094
Loading
Personal Weather Stations






























Interactive Weather Map New forecast layout! Learn more

10-Day Weather Forecast

Advertisements
Track Severe Weather on mobile